createdAt,value
2019-03-10T00:02:12.962Z,5.70
2019-03-10T00:04:43.791Z,5.74
2019-03-10T00:07:15.345Z,5.84
2019-03-10T00:09:46.693Z,5.68
2019-03-10T00:12:19.222Z,5.73
2019-03-10T00:14:50.532Z,5.75
2019-03-10T00:17:21.894Z,5.83
2019-03-10T00:19:53.370Z,5.93
2019-03-10T00:22:24.939Z,6.00
2019-03-10T00:24:56.289Z,6.33
2019-03-10T00:27:27.546Z,6.52
2019-03-10T00:29:58.975Z,6.72
2019-03-10T00:32:31.602Z,7.00
2019-03-10T00:35:02.803Z,7.20
2019-03-10T00:37:34.247Z,7.16
2019-03-10T00:40:08.734Z,7.31
2019-03-10T00:42:58.448Z,7.37
2019-03-10T00:45:35.955Z,7.32
2019-03-10T00:48:30.364Z,7.34
2019-03-10T00:51:21.667Z,7.22
2019-03-10T00:53:53.199Z,7.28
2019-03-10T00:56:24.524Z,7.14
2019-03-10T00:58:55.793Z,7.12
2019-03-10T01:01:27.260Z,6.92
2019-03-10T01:03:58.697Z,7.15
2019-03-10T01:06:30.110Z,6.95
2019-03-10T01:09:01.589Z,6.93
2019-03-10T01:11:34.568Z,7.02
2019-03-10T01:14:05.893Z,7.11
2019-03-10T01:16:37.081Z,7.18
2019-03-10T01:19:08.456Z,7.16
2019-03-10T01:21:40.270Z,7.18
2019-03-10T01:24:11.718Z,7.24
2019-03-10T01:26:43.067Z,7.29
2019-03-10T01:29:14.539Z,7.31
2019-03-10T01:31:51.874Z,7.23
2019-03-10T01:34:45.547Z,7.14
2019-03-10T01:37:16.772Z,7.17
2019-03-10T01:39:48.029Z,6.95
2019-03-10T01:42:19.420Z,6.99
2019-03-10T01:44:50.773Z,6.99
2019-03-10T01:47:22.108Z,7.02
2019-03-10T01:49:53.309Z,7.08
2019-03-10T01:52:24.656Z,7.03
2019-03-10T01:54:56.013Z,7.09
2019-03-10T01:57:27.277Z,7.14
2019-03-10T01:59:58.691Z,7.15
2019-03-10T02:02:30.010Z,7.12
2019-03-10T02:05:01.365Z,7.23
2019-03-10T02:07:33.022Z,7.29
2019-03-10T02:10:06.847Z,7.26
2019-03-10T02:12:38.297Z,7.12
2019-03-10T02:15:12.502Z,7.27
2019-03-10T02:17:43.702Z,7.22
2019-03-10T02:20:17.297Z,7.11
2019-03-10T02:22:48.673Z,7.26
2019-03-10T02:25:20.123Z,7.27
2019-03-10T02:27:52.585Z,6.98
2019-03-10T02:30:23.985Z,7.03
2019-03-10T02:32:55.250Z,7.00
2019-03-10T02:35:26.676Z,6.96
2019-03-10T02:37:58.089Z,6.94
2019-03-10T02:40:29.433Z,6.82
2019-03-10T02:43:00.752Z,6.83
2019-03-10T02:45:32.001Z,6.95
2019-03-10T02:48:03.926Z,6.80
2019-03-10T02:50:35.354Z,6.83
2019-03-10T02:53:06.675Z,6.86
2019-03-10T02:55:37.971Z,6.87
2019-03-10T02:58:09.366Z,6.96
2019-03-10T03:00:40.711Z,6.95
2019-03-10T03:03:12.187Z,6.91
2019-03-10T03:05:43.566Z,6.87
2019-03-10T03:08:16.942Z,6.89
2019-03-10T03:10:48.077Z,6.85
2019-03-10T03:13:19.512Z,6.66
2019-03-10T03:15:50.847Z,6.50
2019-03-10T03:18:22.250Z,6.51
2019-03-10T03:20:53.770Z,6.58
2019-03-10T03:23:25.104Z,6.54
2019-03-10T03:25:56.338Z,6.36
2019-03-10T03:28:27.601Z,6.38
2019-03-10T03:30:59.100Z,6.33
2019-03-10T03:33:30.470Z,6.22
2019-03-10T03:36:05.069Z,6.34
2019-03-10T03:38:42.591Z,6.21
2019-03-10T03:41:19.886Z,6.19
2019-03-10T03:43:51.112Z,6.33
2019-03-10T03:46:22.452Z,6.32
2019-03-10T03:48:53.682Z,6.28
2019-03-10T03:51:25.097Z,6.24
2019-03-10T03:53:56.468Z,6.13
2019-03-10T03:56:28.078Z,6.04
2019-03-10T03:58:59.329Z,6.04
2019-03-10T04:01:32.201Z,6.02
2019-03-10T04:04:03.392Z,5.94
2019-03-10T04:06:34.734Z,5.82
2019-03-10T04:09:08.064Z,5.59
2019-03-10T04:11:39.387Z,5.64
2019-03-10T04:14:10.748Z,5.67
2019-03-10T04:16:42.088Z,5.58
2019-03-10T04:19:13.664Z,5.66
2019-03-10T04:21:45.195Z,5.53
2019-03-10T04:24:16.535Z,5.50
2019-03-10T04:26:47.953Z,5.31
2019-03-10T04:29:21.583Z,5.36
2019-03-10T04:31:52.330Z,5.28
2019-03-10T04:34:23.741Z,5.29
2019-03-10T04:36:55.000Z,5.46
2019-03-10T04:39:26.370Z,5.46
2019-03-10T04:41:57.615Z,5.29
2019-03-10T04:44:29.014Z,5.49
2019-03-10T04:47:00.475Z,5.36
2019-03-10T04:49:31.768Z,5.57
2019-03-10T04:52:03.182Z,5.84
2019-03-10T04:54:52.572Z,5.93
2019-03-10T04:57:24.362Z,5.97
2019-03-10T04:59:55.749Z,6.10
2019-03-10T05:02:27.707Z,6.07
2019-03-10T05:04:58.294Z,6.29
2019-03-10T05:07:29.377Z,6.45
2019-03-10T05:10:00.699Z,6.57
2019-03-10T05:12:32.382Z,6.70
2019-03-10T05:15:05.978Z,6.77
2019-03-10T05:17:37.316Z,6.94
2019-03-10T05:20:08.954Z,6.92
2019-03-10T05:22:40.435Z,7.08
2019-03-10T05:25:18.144Z,7.17
2019-03-10T05:27:49.522Z,7.23
2019-03-10T05:30:20.935Z,7.18
2019-03-10T05:32:52.315Z,7.59
2019-03-10T05:35:23.716Z,7.44
2019-03-10T05:37:55.018Z,7.60
2019-03-10T05:40:26.297Z,7.71
2019-03-10T05:42:57.696Z,7.95
2019-03-10T05:45:28.893Z,8.00
2019-03-10T05:48:00.223Z,8.00
2019-03-10T05:50:31.657Z,8.20
2019-03-10T05:53:03.016Z,8.24
2019-03-10T05:55:34.292Z,8.39
2019-03-10T05:58:05.757Z,8.43
2019-03-10T06:00:42.633Z,8.58
2019-03-10T06:03:10.286Z,8.64
2019-03-10T06:05:41.741Z,8.58
2019-03-10T06:08:13.091Z,8.98
2019-03-10T06:10:44.651Z,9.01
2019-03-10T06:13:15.914Z,9.13
2019-03-10T06:15:47.254Z,9.14
2019-03-10T06:18:18.436Z,9.18
2019-03-10T06:20:49.849Z,9.39
2019-03-10T06:23:21.171Z,9.38
2019-03-10T06:25:52.627Z,9.56
2019-03-10T06:28:23.908Z,9.57
2019-03-10T06:30:56.411Z,9.69
2019-03-10T06:33:28.008Z,9.96
2019-03-10T06:35:59.453Z,10.09
2019-03-10T06:38:30.891Z,9.88
2019-03-10T06:41:02.182Z,10.25
2019-03-10T06:43:33.656Z,10.32
2019-03-10T06:46:05.093Z,10.39
2019-03-10T06:48:37.633Z,10.49
2019-03-10T06:51:10.089Z,10.57
2019-03-10T06:53:41.348Z,10.73
2019-03-10T06:56:12.673Z,10.64
2019-03-10T06:58:44.073Z,10.79
2019-03-10T07:01:15.433Z,10.68
2019-03-10T07:03:46.787Z,11.05
2019-03-10T07:06:18.172Z,11.09
2019-03-10T07:08:49.566Z,11.17
2019-03-10T07:11:20.906Z,11.48
2019-03-10T07:13:52.256Z,11.62
2019-03-10T07:16:23.680Z,11.18
2019-03-10T07:18:55.135Z,11.70
2019-03-10T07:21:27.613Z,11.83
2019-03-10T07:23:59.421Z,12.14
2019-03-10T07:26:30.889Z,12.41
2019-03-10T07:29:03.973Z,12.38
2019-03-10T07:31:42.819Z,12.36
2019-03-10T07:34:21.311Z,12.77
2019-03-10T07:37:12.688Z,12.38
2019-03-10T07:40:03.621Z,12.56
2019-03-10T07:42:36.700Z,12.17
2019-03-10T07:45:16.851Z,12.35
2019-03-10T07:47:55.855Z,12.30
2019-03-10T07:50:28.759Z,12.12
2019-03-10T07:53:01.690Z,12.03
2019-03-10T07:55:37.485Z,12.18
2019-03-10T07:58:10.361Z,12.03
2019-03-10T08:00:54.887Z,12.32
2019-03-10T08:03:36.628Z,12.38
2019-03-10T08:06:25.043Z,12.46
2019-03-10T08:09:09.906Z,12.51
2019-03-10T08:12:01.261Z,12.40
2019-03-10T08:14:50.201Z,12.45
2019-03-10T08:17:32.228Z,12.35
2019-03-10T08:20:05.920Z,12.69
2019-03-10T08:22:38.928Z,12.42
2019-03-10T08:25:14.480Z,12.72
2019-03-10T08:28:00.936Z,12.57
2019-03-10T08:30:31.136Z,12.72
2019-03-10T08:33:19.934Z,12.94
2019-03-10T08:36:08.085Z,13.20
2019-03-10T08:38:41.057Z,13.41
2019-03-10T08:41:28.983Z,13.41
2019-03-10T08:44:04.709Z,13.57
2019-03-10T08:46:53.336Z,13.75
2019-03-10T08:49:26.385Z,13.62
2019-03-10T08:51:59.302Z,13.78
2019-03-10T08:54:38.206Z,13.73
2019-03-10T08:57:11.111Z,13.67
2019-03-10T08:59:44.022Z,13.66
2019-03-10T09:02:17.039Z,13.80
2019-03-10T09:05:06.142Z,13.71
2019-03-10T09:07:41.840Z,13.82
2019-03-10T09:10:20.775Z,13.72
2019-03-10T09:12:56.360Z,13.70
2019-03-10T09:15:44.216Z,14.08
2019-03-10T09:18:17.176Z,14.19
2019-03-10T09:21:02.210Z,14.28
2019-03-10T09:23:35.213Z,14.29
2019-03-10T09:26:14.023Z,14.49
2019-03-10T09:28:49.769Z,14.51
2019-03-10T09:31:28.698Z,14.54
2019-03-10T09:34:04.247Z,14.54
2019-03-10T09:36:53.770Z,14.95
2019-03-10T09:39:26.614Z,14.82
2019-03-10T09:42:15.532Z,14.78
2019-03-10T09:44:57.288Z,14.79
2019-03-10T09:47:44.942Z,15.12
2019-03-10T09:50:17.679Z,15.32
2019-03-10T09:53:08.618Z,15.27
2019-03-10T09:55:57.579Z,15.34
2019-03-10T09:58:31.371Z,15.64
2019-03-10T10:01:13.122Z,15.72
2019-03-10T10:03:48.926Z,15.65
2019-03-10T10:06:27.746Z,15.86
2019-03-10T10:09:17.781Z,15.64
2019-03-10T10:11:54.148Z,15.73
2019-03-10T10:14:27.183Z,16.03
2019-03-10T10:17:00.128Z,16.45
2019-03-10T10:19:36.354Z,16.40
2019-03-10T10:22:27.532Z,16.63
2019-03-10T10:25:00.393Z,16.69
2019-03-10T10:27:33.375Z,16.41
2019-03-10T10:30:12.764Z,16.68
2019-03-10T10:32:45.959Z,16.55
2019-03-10T10:35:35.423Z,16.40
2019-03-10T10:38:18.949Z,16.55
2019-03-10T10:40:57.883Z,16.38
2019-03-10T10:43:33.792Z,16.91
2019-03-10T10:46:22.853Z,16.64
2019-03-10T10:48:55.800Z,16.81
2019-03-10T10:51:31.471Z,16.73
2019-03-10T10:54:04.478Z,16.39
2019-03-10T10:56:37.466Z,16.53
2019-03-10T10:59:10.405Z,16.56
2019-03-10T11:02:00.529Z,16.43
2019-03-10T11:04:49.653Z,16.48
2019-03-10T11:07:37.515Z,16.93
2019-03-10T11:10:22.954Z,16.59
2019-03-10T11:13:12.109Z,16.52
2019-03-10T11:15:53.600Z,16.63
2019-03-10T11:18:25.829Z,16.60
2019-03-10T11:21:07.845Z,16.75
2019-03-10T11:23:46.680Z,17.02
2019-03-10T11:26:25.423Z,17.34
2019-03-10T11:29:03.805Z,16.97
2019-03-10T11:31:42.225Z,16.90
2019-03-10T11:34:27.291Z,16.92
2019-03-10T11:37:16.343Z,16.77
2019-03-10T11:39:49.425Z,16.61
2019-03-10T11:42:37.244Z,16.49
2019-03-10T11:45:11.538Z,16.16
2019-03-10T11:47:47.339Z,16.21
2019-03-10T11:50:29.500Z,15.88
2019-03-10T11:53:19.139Z,15.69
2019-03-10T11:55:49.241Z,15.78
2019-03-10T11:58:22.321Z,16.05
2019-03-10T12:00:55.685Z,16.10
2019-03-10T12:03:29.837Z,16.22
2019-03-10T12:06:05.737Z,16.32
2019-03-10T12:08:53.817Z,16.76
2019-03-10T12:11:25.644Z,16.52
2019-03-10T12:13:57.079Z,16.26
2019-03-10T12:16:31.017Z,15.95
2019-03-10T12:19:01.732Z,15.86
2019-03-10T12:21:33.283Z,16.12
2019-03-10T12:24:04.621Z,16.03
2019-03-10T12:26:36.097Z,15.74
2019-03-10T12:29:07.451Z,15.64
2019-03-10T12:31:38.786Z,15.67
2019-03-10T12:34:10.138Z,15.67
2019-03-10T12:36:41.548Z,15.67
2019-03-10T12:39:13.132Z,15.39
2019-03-10T12:41:44.587Z,15.44
2019-03-10T12:44:15.940Z,15.23
2019-03-10T12:46:47.407Z,15.03
2019-03-10T12:49:18.870Z,14.91
2019-03-10T12:51:50.354Z,15.30
2019-03-10T12:54:21.823Z,14.95
2019-03-10T12:56:53.112Z,14.77
2019-03-10T12:59:24.559Z,14.66
2019-03-10T13:01:55.876Z,14.67
2019-03-10T13:04:27.274Z,14.62
2019-03-10T13:06:58.655Z,14.50
2019-03-10T13:09:30.136Z,14.57
2019-03-10T13:12:01.496Z,14.46
2019-03-10T13:14:32.755Z,14.42
2019-03-10T13:17:04.169Z,14.43
2019-03-10T13:19:35.561Z,14.31
2019-03-10T13:22:07.042Z,14.07
2019-03-10T13:24:38.432Z,14.03
2019-03-10T13:27:10.167Z,13.56
2019-03-10T13:29:41.605Z,12.79
2019-03-10T13:32:13.101Z,12.26
2019-03-10T13:34:44.473Z,11.82
2019-03-10T13:37:16.449Z,11.69
2019-03-10T13:39:47.768Z,11.60
2019-03-10T13:42:19.194Z,11.51
2019-03-10T13:44:50.619Z,11.07
2019-03-10T13:47:21.931Z,11.14
2019-03-10T13:49:55.004Z,11.03
2019-03-10T13:52:26.420Z,10.92
2019-03-10T13:54:57.753Z,10.72
2019-03-10T13:57:30.659Z,10.54
2019-03-10T14:00:01.973Z,10.67
2019-03-10T14:02:34.703Z,10.69
2019-03-10T14:05:07.500Z,10.52
2019-03-10T14:07:39.065Z,10.44
2019-03-10T14:10:11.419Z,10.35
2019-03-10T14:12:42.836Z,10.14
2019-03-10T14:15:15.729Z,10.23
2019-03-10T14:17:47.158Z,10.29
2019-03-10T14:20:18.452Z,10.20
2019-03-10T14:22:49.776Z,10.14
2019-03-10T14:25:21.214Z,10.15
2019-03-10T14:27:52.516Z,10.10
2019-03-10T14:30:23.892Z,10.07
2019-03-10T14:32:55.357Z,10.02
2019-03-10T14:35:26.774Z,9.97
2019-03-10T14:37:58.244Z,9.90
2019-03-10T14:40:29.688Z,9.12
2019-03-10T14:43:00.856Z,8.45
2019-03-10T14:45:32.081Z,8.11
2019-03-10T14:48:03.411Z,7.86
2019-03-10T14:50:34.809Z,7.75
2019-03-10T14:53:05.992Z,7.63
2019-03-10T14:55:37.367Z,7.50
2019-03-10T14:58:08.591Z,7.44
2019-03-10T15:00:40.177Z,7.17
2019-03-10T15:03:12.115Z,7.20
2019-03-10T15:05:43.323Z,7.36
2019-03-10T15:08:14.628Z,7.10
2019-03-10T15:10:45.819Z,6.88
2019-03-10T15:13:17.080Z,6.86
2019-03-10T15:15:48.277Z,6.74
2019-03-10T15:18:19.595Z,6.68
2019-03-10T15:20:58.173Z,6.82
2019-03-10T15:23:32.697Z,6.72
2019-03-10T15:26:04.132Z,6.95
2019-03-10T15:28:35.458Z,6.74
2019-03-10T15:31:06.982Z,6.85
2019-03-10T15:33:38.319Z,6.85
2019-03-10T15:36:19.947Z,6.66
2019-03-10T15:38:42.936Z,6.83
2019-03-10T15:41:14.176Z,6.81
2019-03-10T15:43:45.256Z,6.88
2019-03-10T15:46:16.714Z,6.84
2019-03-10T15:48:48.491Z,6.67
2019-03-10T15:51:21.421Z,6.77
2019-03-10T15:53:52.863Z,6.80
2019-03-10T15:56:24.239Z,6.91
2019-03-10T15:58:55.668Z,7.05
2019-03-10T16:01:27.034Z,7.15
2019-03-10T16:04:00.330Z,7.13
2019-03-10T16:06:31.943Z,7.06
2019-03-10T16:09:03.288Z,7.10
2019-03-10T16:11:36.234Z,7.24
2019-03-10T16:14:07.670Z,7.15
2019-03-10T16:16:39.027Z,7.21
2019-03-10T16:19:10.376Z,7.29
2019-03-10T16:21:41.839Z,7.50
2019-03-10T16:24:13.286Z,7.32
2019-03-10T16:26:45.721Z,7.23
2019-03-10T16:29:17.098Z,7.17
2019-03-10T16:31:48.540Z,6.92
2019-03-10T16:34:19.981Z,7.10
2019-03-10T16:36:51.234Z,7.15
2019-03-10T16:39:23.228Z,7.07
2019-03-10T16:41:54.450Z,7.20
2019-03-10T16:44:25.666Z,7.16
2019-03-10T16:46:56.899Z,7.28
2019-03-10T16:49:28.249Z,7.36
2019-03-10T16:52:00.543Z,7.12
2019-03-10T16:54:31.628Z,7.30
2019-03-10T16:57:02.886Z,7.19
2019-03-10T16:59:34.413Z,7.06
2019-03-10T17:02:05.847Z,6.94
2019-03-10T17:04:37.098Z,7.09
2019-03-10T17:07:08.315Z,6.96
2019-03-10T17:09:39.918Z,7.15
2019-03-10T17:12:10.998Z,6.88
2019-03-10T17:14:42.263Z,7.17
2019-03-10T17:17:13.557Z,7.11
2019-03-10T17:19:44.894Z,7.15
2019-03-10T17:22:16.333Z,7.31
2019-03-10T17:24:47.571Z,7.17
2019-03-10T17:27:19.009Z,7.17
2019-03-10T17:29:51.853Z,7.17
2019-03-10T17:32:23.082Z,7.09
2019-03-10T17:34:54.515Z,7.16
2019-03-10T17:37:25.991Z,7.02
2019-03-10T17:39:58.956Z,7.25
2019-03-10T17:42:30.411Z,6.92
2019-03-10T17:45:02.127Z,6.74
2019-03-10T17:47:33.532Z,6.80
2019-03-10T17:50:06.845Z,6.88
2019-03-10T17:52:38.168Z,6.99
2019-03-10T17:55:11.906Z,6.99
2019-03-10T17:57:43.284Z,6.98
2019-03-10T18:00:39.003Z,6.79
2019-03-10T18:03:10.316Z,6.77
2019-03-10T18:05:41.687Z,6.70
2019-03-10T18:08:13.106Z,6.61
2019-03-10T18:10:44.453Z,6.65
2019-03-10T18:13:15.838Z,6.52
2019-03-10T18:15:47.220Z,6.63
2019-03-10T18:18:18.649Z,6.68
2019-03-10T18:20:50.092Z,6.73
2019-03-10T18:23:21.953Z,6.70
2019-03-10T18:25:53.393Z,6.66
2019-03-10T18:28:24.847Z,6.79
2019-03-10T18:30:56.298Z,6.71
2019-03-10T18:33:27.600Z,6.96
2019-03-10T18:36:00.249Z,6.89
2019-03-10T18:38:31.593Z,7.08
2019-03-10T18:41:02.903Z,6.98
2019-03-10T18:43:34.169Z,6.99
2019-03-10T18:46:05.633Z,7.01
2019-03-10T18:48:37.675Z,7.01
2019-03-10T18:51:10.160Z,6.91
2019-03-10T18:53:41.599Z,6.86
2019-03-10T18:56:12.961Z,7.02
2019-03-10T18:58:44.287Z,6.87
2019-03-10T19:01:17.024Z,6.98
2019-03-10T19:03:48.253Z,7.07
2019-03-10T19:06:19.437Z,7.08
2019-03-10T19:08:50.687Z,7.14
2019-03-10T19:11:22.071Z,7.16
2019-03-10T19:13:53.304Z,7.03
2019-03-10T19:16:24.659Z,6.87
2019-03-10T19:18:56.003Z,6.95
2019-03-10T19:21:27.320Z,6.83
2019-03-10T19:24:00.090Z,6.86
2019-03-10T19:26:31.330Z,6.87
2019-03-10T19:29:02.550Z,6.71
2019-03-10T19:31:33.803Z,6.68
2019-03-10T19:34:05.073Z,6.73
2019-03-10T19:36:37.629Z,6.62
2019-03-10T19:39:09.040Z,6.69
2019-03-10T19:41:41.763Z,6.54
2019-03-10T19:44:13.163Z,6.51
2019-03-10T19:46:44.933Z,6.54
2019-03-10T19:49:16.241Z,6.50
2019-03-10T19:51:48.758Z,6.36
2019-03-10T19:54:19.999Z,6.21
2019-03-10T19:56:51.209Z,6.20
2019-03-10T19:59:22.614Z,6.07
2019-03-10T20:01:53.965Z,6.09
2019-03-10T20:04:25.275Z,5.98
2019-03-10T20:06:56.558Z,6.05
2019-03-10T20:09:27.878Z,5.99
2019-03-10T20:11:59.090Z,5.87
2019-03-10T20:14:31.444Z,5.89
2019-03-10T20:17:02.771Z,5.79
2019-03-10T20:19:34.035Z,5.61
2019-03-10T20:22:05.186Z,5.69
2019-03-10T20:24:36.573Z,5.59
2019-03-10T20:27:07.814Z,5.64
2019-03-10T20:29:38.886Z,5.71
2019-03-10T20:32:14.176Z,5.56
2019-03-10T20:34:43.193Z,5.51
2019-03-10T20:37:14.342Z,5.44
2019-03-10T20:39:45.546Z,5.40
2019-03-10T20:42:16.812Z,5.42
2019-03-10T20:44:48.173Z,5.40
2019-03-10T20:47:19.512Z,5.35
2019-03-10T20:49:50.666Z,5.35
2019-03-10T20:52:21.928Z,5.25
2019-03-10T20:54:53.132Z,5.20
2019-03-10T20:57:24.378Z,5.24
2019-03-10T21:00:00.530Z,5.07
2019-03-10T21:02:29.015Z,5.04
2019-03-10T21:05:00.352Z,4.95
2019-03-10T21:07:31.745Z,4.97
2019-03-10T21:10:03.083Z,4.97
2019-03-10T21:12:40.680Z,4.87
2019-03-10T21:15:10.370Z,4.80
2019-03-10T21:17:41.515Z,4.82
2019-03-10T21:20:15.558Z,4.63
2019-03-10T21:22:46.885Z,4.55
2019-03-10T21:25:29.985Z,4.64
2019-03-10T21:28:01.207Z,4.53
2019-03-10T21:30:33.982Z,4.49
2019-03-10T21:33:05.205Z,4.53
2019-03-10T21:35:36.407Z,4.35
2019-03-10T21:38:07.522Z,4.41
2019-03-10T21:40:38.901Z,4.48
2019-03-10T21:43:10.116Z,4.48
2019-03-10T21:45:41.420Z,4.40
2019-03-10T21:48:12.663Z,4.53
2019-03-10T21:50:43.882Z,4.38
2019-03-10T21:53:15.060Z,4.51
2019-03-10T21:55:46.382Z,4.36
2019-03-10T21:58:17.730Z,4.51
2019-03-10T22:00:48.881Z,4.58
2019-03-10T22:03:20.090Z,4.42
2019-03-10T22:05:51.481Z,4.30
2019-03-10T22:08:22.946Z,4.29
2019-03-10T22:10:54.092Z,4.17
2019-03-10T22:13:25.386Z,4.22
2019-03-10T22:15:57.071Z,4.31
2019-03-10T22:18:28.416Z,4.23
2019-03-10T22:20:59.792Z,4.11
2019-03-10T22:23:31.039Z,4.20
2019-03-10T22:26:02.276Z,4.21
2019-03-10T22:28:33.558Z,4.21
2019-03-10T22:31:04.855Z,4.19
2019-03-10T22:33:36.132Z,4.22
2019-03-10T22:36:07.543Z,4.17
2019-03-10T22:38:38.673Z,4.08
2019-03-10T22:41:09.860Z,3.96
2019-03-10T22:43:41.067Z,4.08
2019-03-10T22:46:12.730Z,4.25
2019-03-10T22:48:44.013Z,3.99
2019-03-10T22:51:15.193Z,3.85
2019-03-10T22:53:46.578Z,3.94
2019-03-10T22:56:17.785Z,3.97
2019-03-10T22:58:49.167Z,3.90
2019-03-10T23:01:20.521Z,3.88
2019-03-10T23:03:51.833Z,3.81
2019-03-10T23:06:23.189Z,3.83
2019-03-10T23:08:54.458Z,3.83
2019-03-10T23:11:25.796Z,3.85
2019-03-10T23:13:57.191Z,3.74
2019-03-10T23:16:28.385Z,3.74
2019-03-10T23:18:59.774Z,3.97
2019-03-10T23:21:31.112Z,3.81
2019-03-10T23:24:02.395Z,3.87
2019-03-10T23:26:35.035Z,3.78
2019-03-10T23:29:07.494Z,3.79
2019-03-10T23:31:40.034Z,3.96
2019-03-10T23:34:11.315Z,3.88
2019-03-10T23:36:42.756Z,3.63
2019-03-10T23:39:14.200Z,3.62
2019-03-10T23:41:45.575Z,3.59
2019-03-10T23:44:17.117Z,3.54
2019-03-10T23:46:48.550Z,3.53
2019-03-10T23:49:19.806Z,3.59
2019-03-10T23:51:51.260Z,3.50
2019-03-10T23:54:22.516Z,3.63
2019-03-10T23:56:54.463Z,3.46
2019-03-10T23:59:25.912Z,3.51
